PWSweather.com
Personal Weather Stations
Station Observations
W0CHP
Plainview, MN 55694

Plainview, MN 55694

Lat: 44.16640472, Lon: -92.16882324

Elevation: 1155

Station Type: HW: WX Station Bridge, Raspberry Pi and RF (APRS) via 144.390 MHz. SW: Xastir, APRX, WeeWX and Linux.

http://wx.w0chp.net

Latest ConditionsUpdated 3:30:00 AM CST Thursday, Dec 12, 2019
Currently Today's Max Today's Min Today's Average
Temperature 11.8°F-11.2°C 11.8°F-11.2°C 7.5°F-13.6°C 9.4°F-12.6°C
Dew Point 8.4°F-13.1°C 8.4°F-13.1°C 3.4°F-15.9°C 5.6°F-14.7°C
Winds 1.3 mph S2.1 kmh S 2.3 mph -3.7 kmh - - 1.3 mph 2.1 kmh
Wind Gusts 2.0 mph3.2 kmh 5.0 mph8.0 kmh - -
Humidity 86% 86% 83% 85%
Pressure 30.27 in1025.1 mb 30.42 in1030.1 mb 30.27 in1025.1 mb -
Hour Temp Dew Point Humidity Winds Wind Gusts Pressure Precip Precip Rate Daily Precip Total
03:30 AM 11.8°F-11.2°C 8.4°F-13.1°C 86% 1.3 mph S2.1 kmh S 2.0 mph3.2 kmh 30.27 in1025.1 mb 0.00 in0.0 mm 0.00 in0.0 mm 0.00 in0.0 mm
03:24 AM 11.6°F-11.3°C 8.3°F-13.2°C 86% 1.7 mph SE2.7 kmh SE 3.0 mph4.8 kmh 30.27 in1025.1 mb 0.00 in0.0 mm 0.00 in0.0 mm 0.00 in0.0 mm
03:18 AM 11.6°F-11.3°C 8.2°F-13.2°C 86% 1.9 mph E3.1 kmh E 4.0 mph6.4 kmh 30.28 in1025.4 mb 0.00 in0.0 mm 0.00 in0.0 mm 0.00 in0.0 mm
03:12 AM 11.6°F-11.3°C 8.2°F-13.2°C 86% 1.8 mph SE2.9 kmh SE 3.0 mph4.8 kmh 30.29 in1025.7 mb 0.00 in0.0 mm 0.00 in0.0 mm 0.00 in0.0 mm
03:06 AM 11.6°F-11.3°C 8.2°F-13.2°C 86% 1.2 mph S1.9 kmh S 2.0 mph3.2 kmh 30.30 in1026.1 mb 0.00 in0.0 mm 0.00 in0.0 mm 0.00 in0.0 mm
03:00 AM 11.5°F-11.4°C 8.2°F-13.2°C 86% 1.0 mph S1.6 kmh S 1.0 mph1.6 kmh 30.30 in1026.1 mb 0.00 in0.0 mm 0.00 in0.0 mm 0.00 in0.0 mm
02:54 AM 11.4°F-11.4°C 8.0°F-13.3°C 86% 1.0 mph S1.6 kmh S 1.0 mph1.6 kmh 30.31 in1026.4 mb 0.00 in0.0 mm 0.00 in0.0 mm 0.00 in0.0 mm
02:48 AM 11.2°F-11.6°C 7.8°F-13.4°C 86% 1.5 mph S2.4 kmh S 3.0 mph4.8 kmh 30.31 in1026.4 mb 0.00 in0.0 mm 0.00 in0.0 mm 0.00 in0.0 mm
02:42 AM 11.1°F-11.6°C 7.5°F-13.6°C 85% 1.0 mph S1.6 kmh S 1.0 mph1.6 kmh 30.32 in1026.8 mb 0.00 in0.0 mm 0.00 in0.0 mm 0.00 in0.0 mm
02:36 AM 10.8°F-11.8°C 7.2°F-13.8°C 85% 2.3 mph S3.7 kmh S 5.0 mph8.0 kmh 30.32 in1026.8 mb 0.00 in0.0 mm 0.00 in0.0 mm 0.00 in0.0 mm
02:30 AM 10.6°F-11.9°C 7.0°F-13.9°C 85% 1.0 mph SSW1.6 kmh SSW 1.0 mph1.6 kmh 30.32 in1026.8 mb 0.00 in0.0 mm 0.00 in0.0 mm 0.00 in0.0 mm
02:24 AM 10.4°F-12.0°C 6.8°F-14.0°C 85% 1.7 mph S2.7 kmh S 2.0 mph3.2 kmh 30.33 in1027.1 mb 0.00 in0.0 mm 0.00 in0.0 mm 0.00 in0.0 mm
02:18 AM 10.1°F-12.2°C 6.5°F-14.2°C 85% 2.3 mph S3.7 kmh S 3.0 mph4.8 kmh 30.33 in1027.1 mb 0.00 in0.0 mm 0.00 in0.0 mm 0.00 in0.0 mm
02:12 AM 10.1°F-12.2°C 6.5°F-14.2°C 85% 1.5 mph SE2.4 kmh SE 2.0 mph3.2 kmh 30.34 in1027.4 mb 0.00 in0.0 mm 0.00 in0.0 mm 0.00 in0.0 mm
02:06 AM 10.0°F-12.2°C 6.4°F-14.2°C 85% 1.3 mph SE2.1 kmh SE 2.0 mph3.2 kmh 30.34 in1027.4 mb 0.00 in0.0 mm 0.00 in0.0 mm 0.00 in0.0 mm
02:00 AM 9.8°F-12.3°C 6.2°F-14.3°C 85% 1.3 mph SE2.1 kmh SE 2.0 mph3.2 kmh 30.35 in1027.8 mb 0.00 in0.0 mm 0.00 in0.0 mm 0.00 in0.0 mm
01:54 AM 9.6°F-12.4°C 6.0°F-14.4°C 85% 1.0 mph S1.6 kmh S 1.0 mph1.6 kmh 30.35 in1027.8 mb 0.00 in0.0 mm 0.00 in0.0 mm 0.00 in0.0 mm
01:48 AM 9.5°F-12.5°C 5.9°F-14.5°C 85% 1.2 mph S1.9 kmh S 2.0 mph3.2 kmh 30.35 in1027.8 mb 0.00 in0.0 mm 0.00 in0.0 mm 0.00 in0.0 mm
01:42 AM 9.3°F-12.6°C 5.7°F-14.6°C 85% 1.7 mph S2.7 kmh S 4.0 mph6.4 kmh 30.36 in1028.1 mb 0.00 in0.0 mm 0.00 in0.0 mm 0.00 in0.0 mm
01:36 AM 9.1°F-12.7°C 5.5°F-14.7°C 85% 1.3 mph SSE2.1 kmh SSE 2.0 mph3.2 kmh 30.37 in1028.4 mb 0.00 in0.0 mm 0.00 in0.0 mm 0.00 in0.0 mm
01:30 AM 8.8°F-12.9°C 5.2°F-14.9°C 85% 1.4 mph S2.3 kmh S 2.0 mph3.2 kmh 30.36 in1028.1 mb 0.00 in0.0 mm 0.00 in0.0 mm 0.00 in0.0 mm
01:24 AM 8.3°F-13.2°C 4.7°F-15.2°C 85% 1.0 mph SSW1.6 kmh SSW 1.0 mph1.6 kmh 30.36 in1028.1 mb 0.00 in0.0 mm 0.00 in0.0 mm 0.00 in0.0 mm
01:18 AM 8.1°F-13.3°C 4.5°F-15.3°C 85% 1.0 mph SE1.6 kmh SE 1.0 mph1.6 kmh 30.37 in1028.4 mb 0.00 in0.0 mm 0.00 in0.0 mm 0.00 in0.0 mm
01:12 AM 8.1°F-13.3°C 4.0°F-15.6°C 83% 1.0 mph NW1.6 kmh NW 1.0 mph1.6 kmh 30.37 in1028.4 mb 0.00 in0.0 mm 0.00 in0.0 mm 0.00 in0.0 mm
01:06 AM 7.9°F-13.4°C 3.8°F-15.7°C 83% 1.2 mph ESE1.9 kmh ESE 2.0 mph3.2 kmh 30.38 in1028.8 mb 0.00 in0.0 mm 0.00 in0.0 mm 0.00 in0.0 mm
01:00 AM 7.8°F-13.4°C 3.7°F-15.7°C 83% 1.0 mph SSW1.6 kmh SSW 1.0 mph1.6 kmh 30.38 in1028.8 mb 0.00 in0.0 mm 0.00 in0.0 mm 0.00 in0.0 mm
12:54 AM 7.6°F-13.6°C 3.5°F-15.8°C 83% 1.2 mph SE1.9 kmh SE 2.0 mph3.2 kmh 30.37 in1028.4 mb 0.00 in0.0 mm 0.00 in0.0 mm 0.00 in0.0 mm
12:48 AM 7.5°F-13.6°C 3.4°F-15.9°C 83% 1.0 mph SE1.6 kmh SE 1.0 mph1.6 kmh 30.37 in1028.4 mb 0.00 in0.0 mm 0.00 in0.0 mm 0.00 in0.0 mm
12:42 AM 7.5°F-13.6°C 3.4°F-15.9°C 83% - N N -- 30.37 in1028.4 mb 0.00 in0.0 mm 0.00 in0.0 mm 0.00 in0.0 mm
12:36 AM 7.5°F-13.6°C 3.4°F-15.9°C 83% 1.0 mph SE1.6 kmh SE 1.0 mph1.6 kmh 30.38 in1028.8 mb 0.00 in0.0 mm 0.00 in0.0 mm 0.00 in0.0 mm
12:30 AM 7.5°F-13.6°C 3.4°F-15.9°C 83% 1.0 mph SSE1.6 kmh SSE 1.0 mph1.6 kmh 30.38 in1028.8 mb 0.00 in0.0 mm 0.00 in0.0 mm 0.00 in0.0 mm
12:24 AM 7.5°F-13.6°C 3.4°F-15.9°C 83% 1.0 mph ENE1.6 kmh ENE 1.0 mph1.6 kmh 30.39 in1029.1 mb 0.00 in0.0 mm 0.00 in0.0 mm 0.00 in0.0 mm
12:18 AM 7.5°F-13.6°C 3.4°F-15.9°C 83% 1.0 mph S1.6 kmh S 1.0 mph1.6 kmh 30.41 in1029.8 mb 0.00 in0.0 mm 0.00 in0.0 mm 0.00 in0.0 mm
12:12 AM 7.5°F-13.6°C 3.4°F-15.9°C 83% 1.2 mph SSE1.9 kmh SSE 2.0 mph3.2 kmh 30.41 in1029.8 mb 0.00 in0.0 mm 0.00 in0.0 mm 0.00 in0.0 mm
12:06 AM 7.5°F-13.6°C 3.4°F-15.9°C 83% - N N -- 30.41 in1029.8 mb 0.00 in0.0 mm 0.00 in0.0 mm 0.00 in0.0 mm
12:00 AM 7.5°F-13.6°C 3.4°F-15.9°C 83% - N N -- 30.42 in1030.1 mb 0.00 in0.0 mm 0.00 in0.0 mm 0.00 in0.0 mm